PST,Max TemperatureF,Mean TemperatureF,Min TemperatureF,Max Dew PointF,MeanDew PointF,Min DewpointF,Max Humidity, Mean Humidity, Min Humidity, Max Sea Level PressureIn, Mean Sea Level PressureIn, Min Sea Level PressureIn, Max VisibilityMiles, Mean VisibilityMiles, Min VisibilityMiles, Max Wind SpeedMPH, Mean Wind SpeedMPH, Max Gust SpeedMPH,PrecipitationIn, CloudCover, Events, WindDirDegrees
2012-11-1,68,61,53,54,52,50,93,76,58,30.06,30.01,29.97,10,8,3,10,5,15,0.00,4,,55
2012-11-2,70,61,51,56,52,48,89,73,57,30.04,29.99,29.96,10,8,4,13,4,16,0.00,0,,330
2012-11-3,73,61,49,57,52,46,93,71,49,30.08,30.04,30.00,10,8,6,9,2,15,0.00,0,,252
2012-11-4,94,71,48,54,43,21,83,45,7,30.10,30.07,30.03,10,10,10,20,6,24,0.00,0,,112
2012-11-5,98,78,58,45,34,24,43,26,8,30.09,30.05,30.01,10,10,10,22,8,28,0.00,0,,60
2012-11-6,81,67,53,61,51,37,93,58,23,30.10,30.06,30.02,10,7,0,12,3,15,0.00,1,Fog,229
2012-11-7,69,62,55,58,56,54,93,78,63,30.10,30.04,29.96,10,4,0,12,4,14,0.00,7,Fog,58
2012-11-8,65,60,54,57,54,44,84,76,67,30.03,29.94,29.87,10,7,2,15,4,,0.03,7,Rain,270
2012-11-9,64,53,42,46,41,37,86,62,37,29.98,29.92,29.88,10,10,10,30,10,35,0.00,0,,274
2012-11-10,63,50,37,42,35,31,85,58,30,30.20,30.09,29.99,10,10,10,28,9,33,0.00,0,,290
2012-11-11,70,53,36,37,28,15,76,44,12,30.33,30.28,30.21,10,10,10,23,7,28,0.00,0,,10
2012-11-12,76,59,41,36,18,8,54,31,7,30.31,30.21,30.14,10,10,10,25,8,31,0.00,0,,25
2012-11-13,84,64,43,40,21,1,45,25,4,30.15,30.08,30.04,10,10,10,15,6,20,0.00,0,,25
2012-11-14,76,62,48,55,35,15,80,45,10,30.09,30.05,30.01,10,10,7,12,4,14,0.00,0,,48
2012-11-15,67,59,50,55,48,41,84,66,48,30.12,30.09,30.04,10,10,8,12,3,14,0.03,4,Rain,344
2012-11-16,69,61,52,55,50,44,78,61,44,30.14,30.09,30.04,10,10,5,13,5,15,0.01,7,Rain,44
2012-11-17,65,62,59,61,58,54,90,81,72,30.13,30.06,30.02,10,7,2,10,4,15,0.41,8,Rain,78
2012-11-18,67,62,57,58,56,53,93,78,63,30.21,30.13,30.07,10,9,2,14,4,16,0.03,6,Rain,249
2012-11-19,69,60,51,55,53,48,93,74,55,30.28,30.22,30.18,10,10,4,13,3,15,0.00,4,,360
2012-11-20,69,59,48,55,50,46,93,70,47,30.19,30.13,30.07,10,10,10,10,3,13,0.00,0,,203
2012-11-21,69,59,48,57,52,44,93,76,59,30.14,30.07,30.03,10,8,0,8,3,10,0.00,2,Fog,120
2012-11-22,66,58,49,55,51,46,100,84,67,30.15,30.10,30.04,10,6,0,9,3,14,0.00,3,Fog,352
2012-11-23,66,57,48,57,52,47,100,87,73,30.20,30.13,30.09,8,3,0,8,3,14,0.00,2,Fog,270
2012-11-24,75,61,46,57,49,45,100,72,43,30.11,30.04,29.95,10,6,0,9,1,10,0.00,1,Fog,208
2012-11-25,69,57,45,56,50,38,84,69,53,30.01,29.94,29.89,10,9,5,15,4,18,0.00,3,,300
2012-11-26,65,58,50,54,51,46,86,73,60,30.14,30.07,30.00,10,7,4,14,4,17,0.00,4,,44
2012-11-27,65,56,47,53,50,46,89,76,63,30.19,30.14,30.09,9,6,4,16,5,20,0.00,3,,39
2012-11-28,68,60,52,57,53,48,89,71,52,30.21,30.16,30.12,10,5,2,14,5,16,0.09,6,Rain,40
2012-11-29,68,64,60,61,59,55,93,83,73,30.23,30.16,30.13,10,6,2,10,4,,0.24,8,Rain,32
2012-11-30,68,64,59,63,60,57,93,86,78,30.17,30.12,30.08,10,5,2,10,3,14,0.24,7,Rain,84